Terminal Aerodrome Forecast
Issued by NWS

Home | Current Version | Previous Version | Text Only | Print | Product List | Glossary On
Versions: 1 2 3 4 5 6 7 8 9 10 11 12
000
FTUS43 KGRB 300520
TAFMTW
TAF
KMTW 300520Z 3006/0106 VRB03KT P6SM VCSH SCT015 BKN100
      TEMPO 3007/3011 3SM BR SCT006
     FM301100 31006KT 6SM BR BKN012 BKN035
      TEMPO 3011/3014 4SM BR BKN006
     FM301600 35008KT P6SM BKN015 BKN035
     FM302000 02011KT P6SM BKN025
     FM010000 36005KT P6SM SKC=

USA.gov is the U.S. government's official web portal to all federal, state and local government web resources and services.